sensor_id;sensor_type;location;lat;lon;timestamp;P1;durP1;ratioP1;P2;durP2;ratioP2
11506;SDS011;5810;51.180;6.646;2023-12-22T00:00:49;0.40;;;0.40;;
11506;SDS011;5810;51.180;6.646;2023-12-22T00:03:17;0.40;;;0.40;;
11506;SDS011;5810;51.180;6.646;2023-12-22T00:05:43;0.30;;;0.30;;
11506;SDS011;5810;51.180;6.646;2023-12-22T00:08:09;0.40;;;0.40;;
11506;SDS011;5810;51.180;6.646;2023-12-22T00:10:35;0.30;;;0.30;;
11506;SDS011;5810;51.180;6.646;2023-12-22T00:13:01;0.30;;;0.30;;
11506;SDS011;5810;51.180;6.646;2023-12-22T00:15:27;0.40;;;0.40;;
11506;SDS011;5810;51.180;6.646;2023-12-22T00:17:53;0.30;;;0.30;;
11506;SDS011;5810;51.180;6.646;2023-12-22T00:20:19;0.30;;;0.30;;
11506;SDS011;5810;51.180;6.646;2023-12-22T00:22:45;0.30;;;0.30;;
11506;SDS011;5810;51.180;6.646;2023-12-22T00:25:11;0.38;;;0.38;;
11506;SDS011;5810;51.180;6.646;2023-12-22T00:27:37;0.40;;;0.40;;
11506;SDS011;5810;51.180;6.646;2023-12-22T00:30:04;0.30;;;0.30;;
11506;SDS011;5810;51.180;6.646;2023-12-22T00:32:30;0.30;;;0.30;;
11506;SDS011;5810;51.180;6.646;2023-12-22T00:34:56;0.30;;;0.30;;
11506;SDS011;5810;51.180;6.646;2023-12-22T00:37:23;0.40;;;0.40;;
11506;SDS011;5810;51.180;6.646;2023-12-22T00:39:49;0.40;;;0.40;;
11506;SDS011;5810;51.180;6.646;2023-12-22T00:42:15;0.40;;;0.40;;
11506;SDS011;5810;51.180;6.646;2023-12-22T00:44:41;0.40;;;0.40;;
11506;SDS011;5810;51.180;6.646;2023-12-22T00:47:07;0.30;;;0.30;;
11506;SDS011;5810;51.180;6.646;2023-12-22T00:49:33;0.70;;;0.70;;
11506;SDS011;5810;51.180;6.646;2023-12-22T00:51:59;0.40;;;0.40;;
11506;SDS011;5810;51.180;6.646;2023-12-22T00:54:25;0.40;;;0.40;;
11506;SDS011;5810;51.180;6.646;2023-12-22T00:56:51;0.30;;;0.30;;
11506;SDS011;5810;51.180;6.646;2023-12-22T00:59:17;0.40;;;0.40;;
11506;SDS011;5810;51.180;6.646;2023-12-22T01:01:43;0.40;;;0.40;;
11506;SDS011;5810;51.180;6.646;2023-12-22T01:04:09;0.30;;;0.30;;
11506;SDS011;5810;51.180;6.646;2023-12-22T01:06:38;0.40;;;0.40;;
11506;SDS011;5810;51.180;6.646;2023-12-22T01:09:04;0.40;;;0.40;;
11506;SDS011;5810;51.180;6.646;2023-12-22T01:11:30;0.40;;;0.40;;
11506;SDS011;5810;51.180;6.646;2023-12-22T01:13:56;0.30;;;0.30;;
11506;SDS011;5810;51.180;6.646;2023-12-22T01:16:22;0.30;;;0.30;;
11506;SDS011;5810;51.180;6.646;2023-12-22T01:18:49;0.40;;;0.40;;
11506;SDS011;5810;51.180;6.646;2023-12-22T01:21:15;0.40;;;0.40;;
11506;SDS011;5810;51.180;6.646;2023-12-22T01:23:41;0.32;;;0.32;;
11506;SDS011;5810;51.180;6.646;2023-12-22T01:26:08;0.40;;;0.40;;
11506;SDS011;5810;51.180;6.646;2023-12-22T01:28:34;0.40;;;0.40;;
11506;SDS011;5810;51.180;6.646;2023-12-22T01:31:00;0.40;;;0.40;;
11506;SDS011;5810;51.180;6.646;2023-12-22T01:33:26;0.40;;;0.40;;
11506;SDS011;5810;51.180;6.646;2023-12-22T01:35:52;0.40;;;0.40;;
11506;SDS011;5810;51.180;6.646;2023-12-22T01:38:18;0.40;;;0.40;;
11506;SDS011;5810;51.180;6.646;2023-12-22T01:40:44;0.40;;;0.40;;
11506;SDS011;5810;51.180;6.646;2023-12-22T01:43:10;0.40;;;0.40;;
11506;SDS011;5810;51.180;6.646;2023-12-22T01:45:36;0.40;;;0.40;;
11506;SDS011;5810;51.180;6.646;2023-12-22T01:48:03;0.40;;;0.40;;
11506;SDS011;5810;51.180;6.646;2023-12-22T01:50:29;0.47;;;0.47;;
11506;SDS011;5810;51.180;6.646;2023-12-22T01:52:55;0.40;;;0.40;;
11506;SDS011;5810;51.180;6.646;2023-12-22T01:55:21;0.40;;;0.40;;
11506;SDS011;5810;51.180;6.646;2023-12-22T01:57:47;0.30;;;0.30;;
11506;SDS011;5810;51.180;6.646;2023-12-22T02:00:13;0.30;;;0.30;;
11506;SDS011;5810;51.180;6.646;2023-12-22T02:02:40;0.30;;;0.30;;
11506;SDS011;5810;51.180;6.646;2023-12-22T02:05:09;0.30;;;0.30;;
11506;SDS011;5810;51.180;6.646;2023-12-22T02:07:37;0.40;;;0.40;;
11506;SDS011;5810;51.180;6.646;2023-12-22T02:10:04;0.50;;;0.50;;
11506;SDS011;5810;51.180;6.646;2023-12-22T02:12:36;0.30;;;0.30;;
11506;SDS011;5810;51.180;6.646;2023-12-22T02:15:08;0.40;;;0.40;;
11506;SDS011;5810;51.180;6.646;2023-12-22T02:17:46;0.30;;;0.30;;
11506;SDS011;5810;51.180;6.646;2023-12-22T02:20:15;0.38;;;0.38;;
11506;SDS011;5810;51.180;6.646;2023-12-22T02:22:41;0.40;;;0.40;;
11506;SDS011;5810;51.180;6.646;2023-12-22T02:25:15;1.75;;;0.98;;
11506;SDS011;5810;51.180;6.646;2023-12-22T02:27:50;0.30;;;0.30;;
11506;SDS011;5810;51.180;6.646;2023-12-22T02:30:31;0.30;;;0.30;;
11506;SDS011;5810;51.180;6.646;2023-12-22T02:33:06;0.30;;;0.30;;
11506;SDS011;5810;51.180;6.646;2023-12-22T02:35:53;0.30;;;0.30;;
11506;SDS011;5810;51.180;6.646;2023-12-22T02:38:21;0.40;;;0.40;;
11506;SDS011;5810;51.180;6.646;2023-12-22T02:40:53;0.32;;;0.32;;
11506;SDS011;5810;51.180;6.646;2023-12-22T02:43:21;0.30;;;0.30;;
11506;SDS011;5810;51.180;6.646;2023-12-22T02:45:56;0.60;;;0.60;;
11506;SDS011;5810;51.180;6.646;2023-12-22T02:48:32;0.40;;;0.40;;
11506;SDS011;5810;51.180;6.646;2023-12-22T02:54:18;0.40;;;0.40;;
11506;SDS011;5810;51.180;6.646;2023-12-22T02:56:49;0.30;;;0.30;;
11506;SDS011;5810;51.180;6.646;2023-12-22T02:59:18;0.40;;;0.40;;
11506;SDS011;5810;51.180;6.646;2023-12-22T03:01:50;1.48;;;0.70;;
11506;SDS011;5810;51.180;6.646;2023-12-22T03:13:08;0.32;;;0.32;;
11506;SDS011;5810;51.180;6.646;2023-12-22T03:18:57;0.40;;;0.40;;
11506;SDS011;5810;51.180;6.646;2023-12-22T03:21:31;0.40;;;0.40;;
11506;SDS011;5810;51.180;6.646;2023-12-22T03:27:06;0.40;;;0.40;;
11506;SDS011;5810;51.180;6.646;2023-12-22T03:29:55;0.32;;;0.32;;
11506;SDS011;5810;51.180;6.646;2023-12-22T03:32:34;1.13;;;0.60;;
11506;SDS011;5810;51.180;6.646;2023-12-22T03:35:23;0.30;;;0.30;;
11506;SDS011;5810;51.180;6.646;2023-12-22T03:37:49;0.50;;;0.50;;
11506;SDS011;5810;51.180;6.646;2023-12-22T03:40:28;1.00;;;0.73;;
11506;SDS011;5810;51.180;6.646;2023-12-22T03:43:19;0.40;;;0.40;;
11506;SDS011;5810;51.180;6.646;2023-12-22T03:45:54;0.30;;;0.30;;
11506;SDS011;5810;51.180;6.646;2023-12-22T03:48:38;0.60;;;0.60;;
11506;SDS011;5810;51.180;6.646;2023-12-22T03:51:08;0.35;;;0.35;;
11506;SDS011;5810;51.180;6.646;2023-12-22T03:53:46;0.40;;;0.40;;
11506;SDS011;5810;51.180;6.646;2023-12-22T03:59:51;0.30;;;0.30;;
11506;SDS011;5810;51.180;6.646;2023-12-22T04:17:12;0.40;;;0.40;;
11506;SDS011;5810;51.180;6.646;2023-12-22T04:26:40;0.32;;;0.32;;
11506;SDS011;5810;51.180;6.646;2023-12-22T04:29:22;0.30;;;0.30;;
11506;SDS011;5810;51.180;6.646;2023-12-22T04:35:05;0.30;;;0.30;;
11506;SDS011;5810;51.180;6.646;2023-12-22T04:37:42;0.40;;;0.40;;
11506;SDS011;5810;51.180;6.646;2023-12-22T04:51:54;0.40;;;0.40;;
11506;SDS011;5810;51.180;6.646;2023-12-22T04:57:53;0.32;;;0.32;;
11506;SDS011;5810;51.180;6.646;2023-12-22T05:00:34;0.40;;;0.40;;
11506;SDS011;5810;51.180;6.646;2023-12-22T05:03:00;0.40;;;0.40;;
11506;SDS011;5810;51.180;6.646;2023-12-22T05:05:26;0.30;;;0.30;;
11506;SDS011;5810;51.180;6.646;2023-12-22T05:07:52;0.55;;;0.55;;
11506;SDS011;5810;51.180;6.646;2023-12-22T05:10:18;0.60;;;0.60;;
11506;SDS011;5810;51.180;6.646;2023-12-22T05:12:44;0.40;;;0.40;;
11506;SDS011;5810;51.180;6.646;2023-12-22T05:15:10;0.30;;;0.30;;
11506;SDS011;5810;51.180;6.646;2023-12-22T05:17:36;0.50;;;0.50;;
11506;SDS011;5810;51.180;6.646;2023-12-22T05:20:02;0.38;;;0.38;;
11506;SDS011;5810;51.180;6.646;2023-12-22T05:22:28;0.40;;;0.40;;
11506;SDS011;5810;51.180;6.646;2023-12-22T05:24:55;0.40;;;0.40;;
11506;SDS011;5810;51.180;6.646;2023-12-22T05:27:21;0.90;;;0.90;;
11506;SDS011;5810;51.180;6.646;2023-12-22T05:29:47;0.40;;;0.40;;
11506;SDS011;5810;51.180;6.646;2023-12-22T05:32:13;3.88;;;0.85;;
11506;SDS011;5810;51.180;6.646;2023-12-22T05:34:39;2.35;;;1.98;;
11506;SDS011;5810;51.180;6.646;2023-12-22T05:37:05;2.85;;;1.23;;
11506;SDS011;5810;51.180;6.646;2023-12-22T05:39:31;5.82;;;3.60;;
11506;SDS011;5810;51.180;6.646;2023-12-22T05:41:57;5.57;;;2.90;;
11506;SDS011;5810;51.180;6.646;2023-12-22T05:44:23;1.55;;;1.48;;
11506;SDS011;5810;51.180;6.646;2023-12-22T05:46:49;0.90;;;0.85;;
11506;SDS011;5810;51.180;6.646;2023-12-22T05:49:15;4.70;;;1.95;;
11506;SDS011;5810;51.180;6.646;2023-12-22T05:51:41;0.70;;;0.70;;
11506;SDS011;5810;51.180;6.646;2023-12-22T05:54:08;2.33;;;1.92;;
11506;SDS011;5810;51.180;6.646;2023-12-22T05:56:35;11.07;;;2.47;;
11506;SDS011;5810;51.180;6.646;2023-12-22T05:59:01;0.85;;;0.85;;
11506;SDS011;5810;51.180;6.646;2023-12-22T06:01:28;0.95;;;0.73;;
11506;SDS011;5810;51.180;6.646;2023-12-22T06:03:54;0.50;;;0.50;;
11506;SDS011;5810;51.180;6.646;2023-12-22T06:06:20;0.40;;;0.40;;
11506;SDS011;5810;51.180;6.646;2023-12-22T06:08:46;1.08;;;1.00;;
11506;SDS011;5810;51.180;6.646;2023-12-22T06:11:12;0.77;;;0.77;;
11506;SDS011;5810;51.180;6.646;2023-12-22T06:13:38;1.85;;;1.75;;
11506;SDS011;5810;51.180;6.646;2023-12-22T06:16:04;2.17;;;1.98;;
11506;SDS011;5810;51.180;6.646;2023-12-22T06:18:30;1.20;;;1.20;;
11506;SDS011;5810;51.180;6.646;2023-12-22T06:20:56;2.78;;;2.20;;
11506;SDS011;5810;51.180;6.646;2023-12-22T06:23:22;1.67;;;1.58;;
11506;SDS011;5810;51.180;6.646;2023-12-22T06:25:48;4.38;;;3.20;;
11506;SDS011;5810;51.180;6.646;2023-12-22T06:28:14;6.40;;;4.68;;
11506;SDS011;5810;51.180;6.646;2023-12-22T06:30:41;6.78;;;4.88;;
11506;SDS011;5810;51.180;6.646;2023-12-22T06:33:08;6.53;;;5.05;;
11506;SDS011;5810;51.180;6.646;2023-12-22T06:35:34;4.22;;;3.78;;
11506;SDS011;5810;51.180;6.646;2023-12-22T06:38:00;3.55;;;3.33;;
11506;SDS011;5810;51.180;6.646;2023-12-22T06:40:28;4.00;;;1.90;;
11506;SDS011;5810;51.180;6.646;2023-12-22T06:42:54;0.50;;;0.50;;
11506;SDS011;5810;51.180;6.646;2023-12-22T06:45:20;2.72;;;1.55;;
11506;SDS011;5810;51.180;6.646;2023-12-22T06:47:46;0.77;;;0.77;;
11506;SDS011;5810;51.180;6.646;2023-12-22T06:50:12;0.38;;;0.38;;
11506;SDS011;5810;51.180;6.646;2023-12-22T06:52:38;0.40;;;0.40;;
11506;SDS011;5810;51.180;6.646;2023-12-22T06:55:04;1.83;;;1.73;;
11506;SDS011;5810;51.180;6.646;2023-12-22T06:57:30;1.02;;;1.02;;
11506;SDS011;5810;51.180;6.646;2023-12-22T06:59:57;0.43;;;0.43;;
11506;SDS011;5810;51.180;6.646;2023-12-22T07:02:22;0.55;;;0.55;;
11506;SDS011;5810;51.180;6.646;2023-12-22T07:04:59;0.40;;;0.40;;
11506;SDS011;5810;51.180;6.646;2023-12-22T07:07:28;0.60;;;0.60;;
11506;SDS011;5810;51.180;6.646;2023-12-22T07:09:54;0.82;;;0.77;;
11506;SDS011;5810;51.180;6.646;2023-12-22T07:12:20;2.40;;;1.98;;
11506;SDS011;5810;51.180;6.646;2023-12-22T07:14:46;2.35;;;1.80;;
11506;SDS011;5810;51.180;6.646;2023-12-22T07:17:12;1.42;;;1.33;;
11506;SDS011;5810;51.180;6.646;2023-12-22T07:19:38;0.95;;;0.93;;
11506;SDS011;5810;51.180;6.646;2023-12-22T07:22:04;0.73;;;0.73;;
11506;SDS011;5810;51.180;6.646;2023-12-22T07:24:30;0.55;;;0.55;;
11506;SDS011;5810;51.180;6.646;2023-12-22T07:26:56;0.32;;;0.32;;
11506;SDS011;5810;51.180;6.646;2023-12-22T07:29:22;0.40;;;0.40;;
11506;SDS011;5810;51.180;6.646;2023-12-22T07:31:48;0.43;;;0.43;;
11506;SDS011;5810;51.180;6.646;2023-12-22T07:34:14;0.60;;;0.60;;
11506;SDS011;5810;51.180;6.646;2023-12-22T07:36:41;0.30;;;0.30;;
11506;SDS011;5810;51.180;6.646;2023-12-22T07:39:07;0.40;;;0.40;;
11506;SDS011;5810;51.180;6.646;2023-12-22T07:41:34;0.50;;;0.50;;
11506;SDS011;5810;51.180;6.646;2023-12-22T07:44:00;0.52;;;0.52;;
11506;SDS011;5810;51.180;6.646;2023-12-22T07:46:26;0.40;;;0.40;;
11506;SDS011;5810;51.180;6.646;2023-12-22T07:48:53;0.70;;;0.70;;
11506;SDS011;5810;51.180;6.646;2023-12-22T07:51:20;0.60;;;0.60;;
11506;SDS011;5810;51.180;6.646;2023-12-22T07:53:46;0.55;;;0.50;;
11506;SDS011;5810;51.180;6.646;2023-12-22T07:56:12;0.40;;;0.40;;
11506;SDS011;5810;51.180;6.646;2023-12-22T07:58:38;0.60;;;0.60;;
11506;SDS011;5810;51.180;6.646;2023-12-22T08:01:04;0.52;;;0.52;;
11506;SDS011;5810;51.180;6.646;2023-12-22T08:03:33;0.47;;;0.47;;
11506;SDS011;5810;51.180;6.646;2023-12-22T08:05:59;0.40;;;0.40;;
11506;SDS011;5810;51.180;6.646;2023-12-22T08:08:25;0.50;;;0.50;;
11506;SDS011;5810;51.180;6.646;2023-12-22T08:10:51;2.22;;;0.60;;
11506;SDS011;5810;51.180;6.646;2023-12-22T08:13:17;0.50;;;0.50;;
11506;SDS011;5810;51.180;6.646;2023-12-22T08:15:43;0.50;;;0.50;;
11506;SDS011;5810;51.180;6.646;2023-12-22T08:18:09;0.95;;;0.65;;
11506;SDS011;5810;51.180;6.646;2023-12-22T08:20:36;0.40;;;0.40;;
11506;SDS011;5810;51.180;6.646;2023-12-22T08:23:02;0.40;;;0.40;;
11506;SDS011;5810;51.180;6.646;2023-12-22T08:25:28;0.98;;;0.98;;
11506;SDS011;5810;51.180;6.646;2023-12-22T08:27:54;0.52;;;0.52;;
11506;SDS011;5810;51.180;6.646;2023-12-22T08:30:20;0.57;;;0.50;;
11506;SDS011;5810;51.180;6.646;2023-12-22T08:32:46;0.40;;;0.40;;
11506;SDS011;5810;51.180;6.646;2023-12-22T08:35:12;0.70;;;0.55;;
11506;SDS011;5810;51.180;6.646;2023-12-22T08:37:38;0.43;;;0.43;;
11506;SDS011;5810;51.180;6.646;2023-12-22T08:40:04;0.50;;;0.50;;
11506;SDS011;5810;51.180;6.646;2023-12-22T08:42:31;0.52;;;0.52;;
11506;SDS011;5810;51.180;6.646;2023-12-22T08:44:57;0.73;;;0.60;;
11506;SDS011;5810;51.180;6.646;2023-12-22T08:47:22;0.50;;;0.50;;
11506;SDS011;5810;51.180;6.646;2023-12-22T08:49:48;0.40;;;0.40;;
11506;SDS011;5810;51.180;6.646;2023-12-22T08:52:14;0.35;;;0.35;;
11506;SDS011;5810;51.180;6.646;2023-12-22T08:54:40;0.50;;;0.50;;
11506;SDS011;5810;51.180;6.646;2023-12-22T08:57:06;0.50;;;0.50;;
11506;SDS011;5810;51.180;6.646;2023-12-22T08:59:34;0.43;;;0.43;;
11506;SDS011;5810;51.180;6.646;2023-12-22T09:02:00;0.45;;;0.45;;
11506;SDS011;5810;51.180;6.646;2023-12-22T09:04:26;0.52;;;0.52;;
11506;SDS011;5810;51.180;6.646;2023-12-22T09:06:52;0.50;;;0.50;;
11506;SDS011;5810;51.180;6.646;2023-12-22T09:09:18;0.40;;;0.40;;
11506;SDS011;5810;51.180;6.646;2023-12-22T09:11:44;0.40;;;0.40;;
11506;SDS011;5810;51.180;6.646;2023-12-22T09:14:10;0.40;;;0.40;;
11506;SDS011;5810;51.180;6.646;2023-12-22T09:16:36;0.70;;;0.70;;
11506;SDS011;5810;51.180;6.646;2023-12-22T09:19:02;0.40;;;0.40;;
11506;SDS011;5810;51.180;6.646;2023-12-22T09:21:28;0.40;;;0.40;;
11506;SDS011;5810;51.180;6.646;2023-12-22T09:23:54;0.57;;;0.57;;
11506;SDS011;5810;51.180;6.646;2023-12-22T09:26:20;0.43;;;0.43;;
11506;SDS011;5810;51.180;6.646;2023-12-22T09:28:47;0.30;;;0.30;;
11506;SDS011;5810;51.180;6.646;2023-12-22T09:31:13;0.68;;;0.68;;
11506;SDS011;5810;51.180;6.646;2023-12-22T09:33:39;0.40;;;0.40;;
11506;SDS011;5810;51.180;6.646;2023-12-22T09:36:06;0.40;;;0.40;;
11506;SDS011;5810;51.180;6.646;2023-12-22T09:38:32;0.50;;;0.50;;
11506;SDS011;5810;51.180;6.646;2023-12-22T09:40:58;0.40;;;0.40;;
11506;SDS011;5810;51.180;6.646;2023-12-22T09:43:24;0.40;;;0.40;;
11506;SDS011;5810;51.180;6.646;2023-12-22T09:45:50;0.30;;;0.30;;
11506;SDS011;5810;51.180;6.646;2023-12-22T09:48:17;0.32;;;0.32;;
11506;SDS011;5810;51.180;6.646;2023-12-22T09:50:45;0.40;;;0.40;;
11506;SDS011;5810;51.180;6.646;2023-12-22T09:53:14;0.45;;;0.45;;
11506;SDS011;5810;51.180;6.646;2023-12-22T09:55:42;0.40;;;0.40;;
11506;SDS011;5810;51.180;6.646;2023-12-22T09:58:08;0.40;;;0.40;;
11506;SDS011;5810;51.180;6.646;2023-12-22T10:00:35;0.60;;;0.60;;
11506;SDS011;5810;51.180;6.646;2023-12-22T10:03:03;0.40;;;0.40;;
11506;SDS011;5810;51.180;6.646;2023-12-22T10:05:30;0.40;;;0.40;;
11506;SDS011;5810;51.180;6.646;2023-12-22T10:07:56;0.40;;;0.40;;
11506;SDS011;5810;51.180;6.646;2023-12-22T10:10:22;0.40;;;0.40;;
11506;SDS011;5810;51.180;6.646;2023-12-22T10:12:49;0.32;;;0.32;;
11506;SDS011;5810;51.180;6.646;2023-12-22T10:15:16;0.40;;;0.40;;
11506;SDS011;5810;51.180;6.646;2023-12-22T10:17:44;0.40;;;0.40;;
11506;SDS011;5810;51.180;6.646;2023-12-22T10:20:10;0.40;;;0.40;;
11506;SDS011;5810;51.180;6.646;2023-12-22T10:22:36;0.40;;;0.40;;
11506;SDS011;5810;51.180;6.646;2023-12-22T10:25:02;0.40;;;0.40;;
11506;SDS011;5810;51.180;6.646;2023-12-22T10:27:28;0.40;;;0.40;;
11506;SDS011;5810;51.180;6.646;2023-12-22T10:29:56;0.40;;;0.40;;
11506;SDS011;5810;51.180;6.646;2023-12-22T10:32:23;0.40;;;0.40;;
11506;SDS011;5810;51.180;6.646;2023-12-22T10:34:52;0.50;;;0.50;;
11506;SDS011;5810;51.180;6.646;2023-12-22T10:37:18;0.40;;;0.40;;
11506;SDS011;5810;51.180;6.646;2023-12-22T10:39:46;0.40;;;0.40;;
11506;SDS011;5810;51.180;6.646;2023-12-22T10:42:14;0.50;;;0.50;;
11506;SDS011;5810;51.180;6.646;2023-12-22T10:44:40;0.30;;;0.30;;
11506;SDS011;5810;51.180;6.646;2023-12-22T10:47:07;0.40;;;0.40;;
11506;SDS011;5810;51.180;6.646;2023-12-22T10:49:33;0.50;;;0.50;;
11506;SDS011;5810;51.180;6.646;2023-12-22T10:51:59;0.40;;;0.40;;
11506;SDS011;5810;51.180;6.646;2023-12-22T10:54:25;0.40;;;0.40;;
11506;SDS011;5810;51.180;6.646;2023-12-22T10:56:52;0.40;;;0.40;;
11506;SDS011;5810;51.180;6.646;2023-12-22T10:59:18;0.30;;;0.30;;
11506;SDS011;5810;51.180;6.646;2023-12-22T11:01:44;0.93;;;0.93;;
11506;SDS011;5810;51.180;6.646;2023-12-22T11:04:13;0.40;;;0.40;;
11506;SDS011;5810;51.180;6.646;2023-12-22T11:06:39;0.40;;;0.40;;
11506;SDS011;5810;51.180;6.646;2023-12-22T11:09:07;0.40;;;0.40;;
11506;SDS011;5810;51.180;6.646;2023-12-22T11:11:34;0.40;;;0.40;;
11506;SDS011;5810;51.180;6.646;2023-12-22T11:14:00;0.40;;;0.40;;
11506;SDS011;5810;51.180;6.646;2023-12-22T11:16:31;0.50;;;0.50;;
11506;SDS011;5810;51.180;6.646;2023-12-22T11:18:58;0.40;;;0.40;;
11506;SDS011;5810;51.180;6.646;2023-12-22T11:21:24;0.40;;;0.40;;
11506;SDS011;5810;51.180;6.646;2023-12-22T11:23:51;0.40;;;0.40;;
11506;SDS011;5810;51.180;6.646;2023-12-22T11:26:18;0.73;;;0.73;;
11506;SDS011;5810;51.180;6.646;2023-12-22T11:28:45;0.40;;;0.40;;
11506;SDS011;5810;51.180;6.646;2023-12-22T11:31:11;0.45;;;0.45;;
11506;SDS011;5810;51.180;6.646;2023-12-22T11:33:40;0.50;;;0.50;;
11506;SDS011;5810;51.180;6.646;2023-12-22T11:36:08;0.50;;;0.50;;
11506;SDS011;5810;51.180;6.646;2023-12-22T11:38:35;0.40;;;0.40;;
11506;SDS011;5810;51.180;6.646;2023-12-22T11:41:01;0.52;;;0.52;;
11506;SDS011;5810;51.180;6.646;2023-12-22T11:43:28;0.40;;;0.40;;
11506;SDS011;5810;51.180;6.646;2023-12-22T11:45:54;0.40;;;0.40;;
11506;SDS011;5810;51.180;6.646;2023-12-22T11:48:21;0.40;;;0.40;;
11506;SDS011;5810;51.180;6.646;2023-12-22T11:50:47;0.40;;;0.40;;
11506;SDS011;5810;51.180;6.646;2023-12-22T11:53:17;0.40;;;0.40;;
11506;SDS011;5810;51.180;6.646;2023-12-22T11:55:55;0.50;;;0.50;;
11506;SDS011;5810;51.180;6.646;2023-12-22T11:58:41;0.50;;;0.50;;
11506;SDS011;5810;51.180;6.646;2023-12-22T12:01:08;1.75;;;0.73;;
11506;SDS011;5810;51.180;6.646;2023-12-22T12:03:41;0.60;;;0.60;;
11506;SDS011;5810;51.180;6.646;2023-12-22T12:06:13;0.43;;;0.43;;
11506;SDS011;5810;51.180;6.646;2023-12-22T12:08:40;0.40;;;0.40;;
11506;SDS011;5810;51.180;6.646;2023-12-22T12:11:07;0.40;;;0.40;;
11506;SDS011;5810;51.180;6.646;2023-12-22T12:13:33;0.40;;;0.40;;
11506;SDS011;5810;51.180;6.646;2023-12-22T12:15:59;0.50;;;0.50;;
11506;SDS011;5810;51.180;6.646;2023-12-22T12:18:30;0.40;;;0.40;;
11506;SDS011;5810;51.180;6.646;2023-12-22T12:20:56;0.50;;;0.50;;
11506;SDS011;5810;51.180;6.646;2023-12-22T12:23:26;0.40;;;0.40;;
11506;SDS011;5810;51.180;6.646;2023-12-22T12:25:55;0.40;;;0.40;;
11506;SDS011;5810;51.180;6.646;2023-12-22T12:28:31;0.85;;;0.85;;
11506;SDS011;5810;51.180;6.646;2023-12-22T12:30:57;0.50;;;0.50;;
11506;SDS011;5810;51.180;6.646;2023-12-22T12:33:27;0.43;;;0.43;;
11506;SDS011;5810;51.180;6.646;2023-12-22T12:35:54;0.40;;;0.40;;
11506;SDS011;5810;51.180;6.646;2023-12-22T12:38:21;0.30;;;0.30;;
11506;SDS011;5810;51.180;6.646;2023-12-22T12:40:50;0.40;;;0.40;;
11506;SDS011;5810;51.180;6.646;2023-12-22T12:43:16;0.50;;;0.50;;
11506;SDS011;5810;51.180;6.646;2023-12-22T12:45:43;0.50;;;0.50;;
11506;SDS011;5810;51.180;6.646;2023-12-22T12:48:09;0.40;;;0.40;;
11506;SDS011;5810;51.180;6.646;2023-12-22T12:50:35;0.40;;;0.40;;
11506;SDS011;5810;51.180;6.646;2023-12-22T12:53:01;0.40;;;0.40;;
11506;SDS011;5810;51.180;6.646;2023-12-22T12:55:28;0.40;;;0.40;;
11506;SDS011;5810;51.180;6.646;2023-12-22T12:57:54;0.50;;;0.50;;
11506;SDS011;5810;51.180;6.646;2023-12-22T13:00:24;0.40;;;0.40;;
11506;SDS011;5810;51.180;6.646;2023-12-22T13:02:50;0.40;;;0.40;;
11506;SDS011;5810;51.180;6.646;2023-12-22T13:05:20;0.40;;;0.40;;
11506;SDS011;5810;51.180;6.646;2023-12-22T13:07:47;0.50;;;0.50;;
11506;SDS011;5810;51.180;6.646;2023-12-22T13:10:23;0.40;;;0.40;;
11506;SDS011;5810;51.180;6.646;2023-12-22T13:12:52;0.47;;;0.47;;
11506;SDS011;5810;51.180;6.646;2023-12-22T13:15:19;0.40;;;0.40;;
11506;SDS011;5810;51.180;6.646;2023-12-22T13:17:46;0.40;;;0.40;;
11506;SDS011;5810;51.180;6.646;2023-12-22T13:20:12;0.40;;;0.40;;
11506;SDS011;5810;51.180;6.646;2023-12-22T13:22:38;0.50;;;0.50;;
11506;SDS011;5810;51.180;6.646;2023-12-22T13:25:05;0.30;;;0.30;;
11506;SDS011;5810;51.180;6.646;2023-12-22T13:27:31;0.40;;;0.40;;
11506;SDS011;5810;51.180;6.646;2023-12-22T13:29:57;0.43;;;0.43;;
11506;SDS011;5810;51.180;6.646;2023-12-22T13:32:23;0.40;;;0.40;;
11506;SDS011;5810;51.180;6.646;2023-12-22T13:34:49;0.40;;;0.40;;
11506;SDS011;5810;51.180;6.646;2023-12-22T13:37:16;0.60;;;0.60;;
11506;SDS011;5810;51.180;6.646;2023-12-22T13:39:42;0.50;;;0.50;;
11506;SDS011;5810;51.180;6.646;2023-12-22T13:42:17;0.50;;;0.50;;
11506;SDS011;5810;51.180;6.646;2023-12-22T13:44:45;0.50;;;0.50;;
11506;SDS011;5810;51.180;6.646;2023-12-22T13:47:12;0.40;;;0.40;;
11506;SDS011;5810;51.180;6.646;2023-12-22T13:49:38;0.40;;;0.40;;
11506;SDS011;5810;51.180;6.646;2023-12-22T13:52:06;0.40;;;0.40;;
11506;SDS011;5810;51.180;6.646;2023-12-22T13:54:32;0.50;;;0.50;;
11506;SDS011;5810;51.180;6.646;2023-12-22T13:56:59;0.40;;;0.40;;
11506;SDS011;5810;51.180;6.646;2023-12-22T13:59:30;0.30;;;0.30;;
11506;SDS011;5810;51.180;6.646;2023-12-22T14:01:57;0.60;;;0.60;;
11506;SDS011;5810;51.180;6.646;2023-12-22T14:04:23;0.50;;;0.50;;
11506;SDS011;5810;51.180;6.646;2023-12-22T14:06:49;0.50;;;0.50;;
11506;SDS011;5810;51.180;6.646;2023-12-22T14:09:15;0.40;;;0.40;;
11506;SDS011;5810;51.180;6.646;2023-12-22T14:11:44;0.50;;;0.50;;
11506;SDS011;5810;51.180;6.646;2023-12-22T14:14:10;0.40;;;0.40;;
11506;SDS011;5810;51.180;6.646;2023-12-22T14:16:37;0.52;;;0.52;;
11506;SDS011;5810;51.180;6.646;2023-12-22T14:19:03;0.50;;;0.50;;
11506;SDS011;5810;51.180;6.646;2023-12-22T14:21:29;0.40;;;0.40;;
11506;SDS011;5810;51.180;6.646;2023-12-22T14:23:54;0.50;;;0.50;;
11506;SDS011;5810;51.180;6.646;2023-12-22T14:26:20;1.33;;;0.98;;
11506;SDS011;5810;51.180;6.646;2023-12-22T14:28:46;0.40;;;0.40;;
11506;SDS011;5810;51.180;6.646;2023-12-22T14:31:15;0.40;;;0.40;;
11506;SDS011;5810;51.180;6.646;2023-12-22T14:33:42;0.40;;;0.40;;
11506;SDS011;5810;51.180;6.646;2023-12-22T14:36:07;0.50;;;0.50;;
11506;SDS011;5810;51.180;6.646;2023-12-22T14:38:33;0.40;;;0.40;;
11506;SDS011;5810;51.180;6.646;2023-12-22T14:40:59;3.13;;;0.60;;
11506;SDS011;5810;51.180;6.646;2023-12-22T14:43:25;0.50;;;0.50;;
11506;SDS011;5810;51.180;6.646;2023-12-22T14:45:51;0.50;;;0.50;;
11506;SDS011;5810;51.180;6.646;2023-12-22T14:48:17;0.40;;;0.40;;
11506;SDS011;5810;51.180;6.646;2023-12-22T14:50:43;0.52;;;0.52;;
11506;SDS011;5810;51.180;6.646;2023-12-22T14:53:09;0.50;;;0.50;;
11506;SDS011;5810;51.180;6.646;2023-12-22T14:55:36;0.50;;;0.50;;
11506;SDS011;5810;51.180;6.646;2023-12-22T14:58:01;0.40;;;0.40;;
11506;SDS011;5810;51.180;6.646;2023-12-22T15:00:32;0.50;;;0.50;;
11506;SDS011;5810;51.180;6.646;2023-12-22T15:02:58;0.40;;;0.40;;
11506;SDS011;5810;51.180;6.646;2023-12-22T15:05:24;0.50;;;0.50;;
11506;SDS011;5810;51.180;6.646;2023-12-22T15:07:54;0.40;;;0.40;;
11506;SDS011;5810;51.180;6.646;2023-12-22T15:10:20;0.40;;;0.40;;
11506;SDS011;5810;51.180;6.646;2023-12-22T15:12:46;0.40;;;0.40;;
11506;SDS011;5810;51.180;6.646;2023-12-22T15:15:13;0.50;;;0.50;;
11506;SDS011;5810;51.180;6.646;2023-12-22T15:17:39;0.40;;;0.40;;
11506;SDS011;5810;51.180;6.646;2023-12-22T15:20:05;0.50;;;0.50;;
11506;SDS011;5810;51.180;6.646;2023-12-22T15:22:33;0.50;;;0.50;;
11506;SDS011;5810;51.180;6.646;2023-12-22T15:24:59;0.50;;;0.50;;
11506;SDS011;5810;51.180;6.646;2023-12-22T15:27:25;0.50;;;0.50;;
11506;SDS011;5810;51.180;6.646;2023-12-22T15:29:52;0.47;;;0.47;;
11506;SDS011;5810;51.180;6.646;2023-12-22T15:32:18;0.40;;;0.40;;
11506;SDS011;5810;51.180;6.646;2023-12-22T15:34:44;0.50;;;0.50;;
11506;SDS011;5810;51.180;6.646;2023-12-22T15:37:12;0.50;;;0.50;;
11506;SDS011;5810;51.180;6.646;2023-12-22T15:39:38;0.45;;;0.45;;
11506;SDS011;5810;51.180;6.646;2023-12-22T15:42:04;0.40;;;0.40;;
11506;SDS011;5810;51.180;6.646;2023-12-22T15:44:30;0.50;;;0.50;;
11506;SDS011;5810;51.180;6.646;2023-12-22T15:46:56;0.40;;;0.40;;
11506;SDS011;5810;51.180;6.646;2023-12-22T15:49:22;0.50;;;0.50;;
11506;SDS011;5810;51.180;6.646;2023-12-22T15:51:48;0.40;;;0.40;;
11506;SDS011;5810;51.180;6.646;2023-12-22T15:54:17;0.40;;;0.40;;
11506;SDS011;5810;51.180;6.646;2023-12-22T15:56:44;0.50;;;0.50;;
11506;SDS011;5810;51.180;6.646;2023-12-22T15:59:10;0.70;;;0.70;;
11506;SDS011;5810;51.180;6.646;2023-12-22T16:01:41;0.47;;;0.47;;
11506;SDS011;5810;51.180;6.646;2023-12-22T16:04:08;0.50;;;0.50;;